sensor_id;sensor_type;location;lat;lon;timestamp;pressure;altitude;pressure_sealevel;temperature;humidity
28004;BME280;15330;51.234;6.754;2022-09-17T00:01:48;100820.41;;;11.04;80.76
28004;BME280;15330;51.234;6.754;2022-09-17T00:04:13;100826.59;;;11.05;80.97
28004;BME280;15330;51.234;6.754;2022-09-17T00:06:39;100822.59;;;11.09;81.25
28004;BME280;15330;51.234;6.754;2022-09-17T00:09:05;100804.84;;;11.00;81.71
28004;BME280;15330;51.234;6.754;2022-09-17T00:11:34;100810.53;;;11.21;80.74
28004;BME280;15330;51.234;6.754;2022-09-17T00:14:01;100817.56;;;11.06;81.56
28004;BME280;15330;51.234;6.754;2022-09-17T00:16:37;100825.28;;;11.17;81.47
28004;BME280;15330;51.234;6.754;2022-09-17T00:19:03;100808.38;;;11.09;81.17
28004;BME280;15330;51.234;6.754;2022-09-17T00:21:30;100823.06;;;10.96;81.77
28004;BME280;15330;51.234;6.754;2022-09-17T00:23:58;100825.06;;;10.94;82.53
28004;BME280;15330;51.234;6.754;2022-09-17T00:26:23;100820.03;;;10.83;82.89
28004;BME280;15330;51.234;6.754;2022-09-17T00:28:52;100819.56;;;10.88;82.75
28004;BME280;15330;51.234;6.754;2022-09-17T00:31:19;100820.91;;;11.08;82.19
28004;BME280;15330;51.234;6.754;2022-09-17T00:33:45;100824.59;;;11.15;81.88
28004;BME280;15330;51.234;6.754;2022-09-17T00:36:10;100822.56;;;11.01;82.23
28004;BME280;15330;51.234;6.754;2022-09-17T00:38:35;100827.75;;;10.94;82.89
28004;BME280;15330;51.234;6.754;2022-09-17T00:41:02;100831.78;;;11.07;82.57
28004;BME280;15330;51.234;6.754;2022-09-17T00:43:50;100834.47;;;10.98;82.95
28004;BME280;15330;51.234;6.754;2022-09-17T00:46:30;100833.47;;;11.08;82.98
28004;BME280;15330;51.234;6.754;2022-09-17T00:48:59;100838.97;;;10.90;83.59
28004;BME280;15330;51.234;6.754;2022-09-17T00:51:35;100842.50;;;11.15;82.87
28004;BME280;15330;51.234;6.754;2022-09-17T00:54:03;100838.81;;;11.08;83.18
28004;BME280;15330;51.234;6.754;2022-09-17T00:56:34;100845.97;;;10.91;83.64
28004;BME280;15330;51.234;6.754;2022-09-17T00:59:00;100846.00;;;11.15;83.09
28004;BME280;15330;51.234;6.754;2022-09-17T01:01:28;100837.13;;;10.98;83.88
28004;BME280;15330;51.234;6.754;2022-09-17T01:03:53;100843.00;;;11.10;82.95
28004;BME280;15330;51.234;6.754;2022-09-17T01:06:24;100850.53;;;11.15;83.30
28004;BME280;15330;51.234;6.754;2022-09-17T01:09:02;100847.16;;;11.04;83.28
28004;BME280;15330;51.234;6.754;2022-09-17T01:28:23;100851.34;;;10.99;84.11
28004;BME280;15330;51.234;6.754;2022-09-17T01:31:28;100852.34;;;10.98;84.30
28004;BME280;15330;51.234;6.754;2022-09-17T01:34:18;100854.53;;;11.02;84.88
28004;BME280;15330;51.234;6.754;2022-09-17T01:36:52;100850.16;;;10.85;84.79
28004;BME280;15330;51.234;6.754;2022-09-17T01:47:42;100853.28;;;10.73;85.51
28004;BME280;15330;51.234;6.754;2022-09-17T01:50:13;100855.53;;;11.01;85.04
28004;BME280;15330;51.234;6.754;2022-09-17T01:52:43;100853.13;;;10.74;84.90
28004;BME280;15330;51.234;6.754;2022-09-17T01:55:13;100856.97;;;10.80;85.18
28004;BME280;15330;51.234;6.754;2022-09-17T01:57:46;100858.03;;;10.87;84.59
28004;BME280;15330;51.234;6.754;2022-09-17T02:00:14;100856.56;;;11.09;83.79
28004;BME280;15330;51.234;6.754;2022-09-17T02:02:49;100854.38;;;11.04;84.25
28004;BME280;15330;51.234;6.754;2022-09-17T02:05:21;100851.16;;;11.00;84.41
28004;BME280;15330;51.234;6.754;2022-09-17T02:07:55;100861.16;;;10.82;84.73
28004;BME280;15330;51.234;6.754;2022-09-17T02:10:31;100856.34;;;10.86;84.56
28004;BME280;15330;51.234;6.754;2022-09-17T02:13:01;100864.22;;;10.95;84.42
28004;BME280;15330;51.234;6.754;2022-09-17T02:15:41;100855.19;;;11.04;84.16
28004;BME280;15330;51.234;6.754;2022-09-17T02:21:16;100871.56;;;10.85;84.20
28004;BME280;15330;51.234;6.754;2022-09-17T02:24:14;100867.88;;;10.86;84.64
28004;BME280;15330;51.234;6.754;2022-09-17T02:26:46;100861.69;;;10.78;84.55
28004;BME280;15330;51.234;6.754;2022-09-17T02:29:24;100869.41;;;10.89;84.91
28004;BME280;15330;51.234;6.754;2022-09-17T02:31:51;100871.25;;;10.88;84.51
28004;BME280;15330;51.234;6.754;2022-09-17T02:34:17;100855.34;;;10.79;84.98
28004;BME280;15330;51.234;6.754;2022-09-17T02:36:43;100855.84;;;10.90;84.45
28004;BME280;15330;51.234;6.754;2022-09-17T02:39:09;100859.53;;;10.97;84.08
28004;BME280;15330;51.234;6.754;2022-09-17T02:41:43;100847.78;;;10.82;84.73
28004;BME280;15330;51.234;6.754;2022-09-17T02:47:14;100856.34;;;10.86;84.53
28004;BME280;15330;51.234;6.754;2022-09-17T02:58:52;100874.22;;;10.85;84.30
28004;BME280;15330;51.234;6.754;2022-09-17T03:01:27;100874.56;;;10.90;84.69
28004;BME280;15330;51.234;6.754;2022-09-17T03:03:54;100873.91;;;10.88;84.35
28004;BME280;15330;51.234;6.754;2022-09-17T03:06:24;100878.78;;;11.01;83.47
28004;BME280;15330;51.234;6.754;2022-09-17T03:08:50;100882.47;;;11.00;83.33
28004;BME280;15330;51.234;6.754;2022-09-17T03:11:16;100889.13;;;10.88;84.39
28004;BME280;15330;51.234;6.754;2022-09-17T03:13:41;100886.91;;;10.67;84.39
28004;BME280;15330;51.234;6.754;2022-09-17T03:16:07;100884.91;;;10.77;84.17
28004;BME280;15330;51.234;6.754;2022-09-17T03:18:32;100879.16;;;10.56;85.38
28004;BME280;15330;51.234;6.754;2022-09-17T03:20:58;100868.31;;;10.57;84.57
28004;BME280;15330;51.234;6.754;2022-09-17T03:23:23;100886.63;;;10.86;84.18
28004;BME280;15330;51.234;6.754;2022-09-17T03:25:49;100883.09;;;10.86;83.89
28004;BME280;15330;51.234;6.754;2022-09-17T03:28:15;100874.53;;;10.74;84.63
28004;BME280;15330;51.234;6.754;2022-09-17T03:30:44;100868.50;;;10.72;84.49
28004;BME280;15330;51.234;6.754;2022-09-17T03:33:10;100876.03;;;10.69;84.62
28004;BME280;15330;51.234;6.754;2022-09-17T03:35:36;100881.59;;;10.83;84.09
28004;BME280;15330;51.234;6.754;2022-09-17T03:38:01;100875.53;;;10.73;84.30
28004;BME280;15330;51.234;6.754;2022-09-17T03:40:27;100874.22;;;10.77;84.70
28004;BME280;15330;51.234;6.754;2022-09-17T03:42:52;100880.28;;;10.87;84.29
28004;BME280;15330;51.234;6.754;2022-09-17T03:45:18;100874.56;;;10.90;83.77
28004;BME280;15330;51.234;6.754;2022-09-17T03:47:43;100881.28;;;10.94;84.54
28004;BME280;15330;51.234;6.754;2022-09-17T03:50:09;100875.75;;;10.88;84.42
28004;BME280;15330;51.234;6.754;2022-09-17T03:52:34;100888.28;;;10.87;85.00
28004;BME280;15330;51.234;6.754;2022-09-17T03:55:00;100887.59;;;10.77;84.97
28004;BME280;15330;51.234;6.754;2022-09-17T03:57:25;100886.63;;;10.86;84.70
28004;BME280;15330;51.234;6.754;2022-09-17T03:59:51;100887.94;;;10.90;84.50
28004;BME280;15330;51.234;6.754;2022-09-17T04:02:16;100891.59;;;10.81;84.83
28004;BME280;15330;51.234;6.754;2022-09-17T04:04:42;100892.81;;;10.87;85.38
28004;BME280;15330;51.234;6.754;2022-09-17T04:07:08;100892.09;;;10.77;85.45
28004;BME280;15330;51.234;6.754;2022-09-17T04:09:34;100884.56;;;10.80;85.23
28004;BME280;15330;51.234;6.754;2022-09-17T04:11:59;100885.63;;;10.87;85.45
28004;BME280;15330;51.234;6.754;2022-09-17T04:14:24;100886.78;;;10.85;84.67
28004;BME280;15330;51.234;6.754;2022-09-17T04:16:50;100896.16;;;10.89;84.92
28004;BME280;15330;51.234;6.754;2022-09-17T04:19:15;100901.28;;;10.74;85.37
28004;BME280;15330;51.234;6.754;2022-09-17T04:21:40;100902.81;;;10.77;85.23
28004;BME280;15330;51.234;6.754;2022-09-17T04:24:06;100907.00;;;10.79;84.77
28004;BME280;15330;51.234;6.754;2022-09-17T04:26:31;100904.13;;;10.73;85.30
28004;BME280;15330;51.234;6.754;2022-09-17T04:28:57;100906.50;;;10.76;85.25
28004;BME280;15330;51.234;6.754;2022-09-17T04:31:22;100902.25;;;10.65;85.29
28004;BME280;15330;51.234;6.754;2022-09-17T04:33:49;100904.16;;;10.81;84.80
28004;BME280;15330;51.234;6.754;2022-09-17T04:36:15;100897.75;;;10.65;84.69
28004;BME280;15330;51.234;6.754;2022-09-17T04:38:40;100908.00;;;10.78;85.27
28004;BME280;15330;51.234;6.754;2022-09-17T04:41:06;100912.84;;;10.75;84.63
28004;BME280;15330;51.234;6.754;2022-09-17T04:43:32;100916.75;;;10.54;85.42
28004;BME280;15330;51.234;6.754;2022-09-17T04:45:57;100909.28;;;10.58;85.36
28004;BME280;15330;51.234;6.754;2022-09-17T04:48:23;100909.59;;;10.63;85.35
28004;BME280;15330;51.234;6.754;2022-09-17T04:50:48;100916.59;;;10.56;85.72
28004;BME280;15330;51.234;6.754;2022-09-17T04:53:13;100898.25;;;10.27;86.25
28004;BME280;15330;51.234;6.754;2022-09-17T04:55:39;100910.16;;;10.41;86.51
28004;BME280;15330;51.234;6.754;2022-09-17T04:58:04;100906.88;;;10.47;86.24
28004;BME280;15330;51.234;6.754;2022-09-17T05:00:30;100914.94;;;10.55;85.73
28004;BME280;15330;51.234;6.754;2022-09-17T05:02:55;100920.88;;;10.41;86.53
28004;BME280;15330;51.234;6.754;2022-09-17T05:05:21;100918.00;;;10.34;86.42
28004;BME280;15330;51.234;6.754;2022-09-17T05:07:47;100924.63;;;10.56;85.17
28004;BME280;15330;51.234;6.754;2022-09-17T05:10:15;100930.09;;;10.46;85.59
28004;BME280;15330;51.234;6.754;2022-09-17T05:12:40;100931.09;;;10.45;85.87
28004;BME280;15330;51.234;6.754;2022-09-17T05:15:06;100929.56;;;10.43;85.72
28004;BME280;15330;51.234;6.754;2022-09-17T05:17:31;100926.47;;;10.55;85.30
28004;BME280;15330;51.234;6.754;2022-09-17T05:19:57;100932.66;;;10.56;85.31
28004;BME280;15330;51.234;6.754;2022-09-17T05:22:22;100933.94;;;10.44;85.58
28004;BME280;15330;51.234;6.754;2022-09-17T05:24:47;100926.19;;;10.33;86.29
28004;BME280;15330;51.234;6.754;2022-09-17T05:27:13;100927.88;;;10.34;86.44
28004;BME280;15330;51.234;6.754;2022-09-17T05:29:38;100938.84;;;10.56;85.76
28004;BME280;15330;51.234;6.754;2022-09-17T05:32:04;100936.94;;;10.49;85.52
28004;BME280;15330;51.234;6.754;2022-09-17T05:34:30;100942.22;;;10.58;86.17
28004;BME280;15330;51.234;6.754;2022-09-17T05:36:55;100942.00;;;10.52;85.92
28004;BME280;15330;51.234;6.754;2022-09-17T05:39:21;100943.00;;;10.59;85.24
28004;BME280;15330;51.234;6.754;2022-09-17T05:41:50;100941.13;;;10.77;84.63
28004;BME280;15330;51.234;6.754;2022-09-17T05:44:16;100948.63;;;10.82;84.40
28004;BME280;15330;51.234;6.754;2022-09-17T05:46:41;100948.19;;;10.94;84.25
28004;BME280;15330;51.234;6.754;2022-09-17T05:49:07;100948.25;;;11.11;83.24
28004;BME280;15330;51.234;6.754;2022-09-17T05:51:32;100954.84;;;10.90;83.16
28004;BME280;15330;51.234;6.754;2022-09-17T05:53:57;100952.53;;;10.95;82.98
28004;BME280;15330;51.234;6.754;2022-09-17T05:56:23;100965.25;;;10.93;83.84
28004;BME280;15330;51.234;6.754;2022-09-17T05:58:48;100967.00;;;11.11;83.08
28004;BME280;15330;51.234;6.754;2022-09-17T06:01:14;100971.00;;;11.15;82.49
28004;BME280;15330;51.234;6.754;2022-09-17T06:03:41;100982.72;;;11.14;83.08
28004;BME280;15330;51.234;6.754;2022-09-17T06:06:06;100968.69;;;11.20;84.07
28004;BME280;15330;51.234;6.754;2022-09-17T06:08:32;100967.63;;;11.04;85.03
28004;BME280;15330;51.234;6.754;2022-09-17T06:11:03;100977.59;;;11.28;84.84
28004;BME280;15330;51.234;6.754;2022-09-17T06:13:28;100981.66;;;11.57;84.08
28004;BME280;15330;51.234;6.754;2022-09-17T06:15:55;100977.13;;;11.65;83.71
28004;BME280;15330;51.234;6.754;2022-09-17T06:18:20;100981.34;;;11.76;83.12
28004;BME280;15330;51.234;6.754;2022-09-17T06:20:56;100978.50;;;11.77;83.11
28004;BME280;15330;51.234;6.754;2022-09-17T06:23:22;100987.31;;;11.46;83.62
28004;BME280;15330;51.234;6.754;2022-09-17T06:25:57;100984.47;;;11.31;82.88
28004;BME280;15330;51.234;6.754;2022-09-17T06:28:26;100982.78;;;11.30;84.14
28004;BME280;15330;51.234;6.754;2022-09-17T06:30:51;100999.69;;;11.30;84.42
28004;BME280;15330;51.234;6.754;2022-09-17T06:33:19;100990.00;;;11.54;84.16
28004;BME280;15330;51.234;6.754;2022-09-17T06:35:44;100992.88;;;11.60;83.64
28004;BME280;15330;51.234;6.754;2022-09-17T06:38:10;101003.69;;;11.34;84.14
28004;BME280;15330;51.234;6.754;2022-09-17T06:40:35;100992.16;;;11.42;83.76
28004;BME280;15330;51.234;6.754;2022-09-17T06:43:01;101000.19;;;11.34;84.31
28004;BME280;15330;51.234;6.754;2022-09-17T06:45:26;100996.50;;;11.43;84.52
28004;BME280;15330;51.234;6.754;2022-09-17T06:47:52;100995.25;;;12.20;81.05
28004;BME280;15330;51.234;6.754;2022-09-17T06:50:17;100989.59;;;13.26;76.82
28004;BME280;15330;51.234;6.754;2022-09-17T06:52:50;100992.91;;;13.36;75.63
28004;BME280;15330;51.234;6.754;2022-09-17T06:55:16;101000.88;;;13.13;75.21
28004;BME280;15330;51.234;6.754;2022-09-17T06:57:42;100999.09;;;13.90;73.44
28004;BME280;15330;51.234;6.754;2022-09-17T07:00:08;100990.81;;;13.46;73.67
28004;BME280;15330;51.234;6.754;2022-09-17T07:02:34;101002.97;;;13.34;74.38
28004;BME280;15330;51.234;6.754;2022-09-17T07:04:59;100996.47;;;14.72;70.69
28004;BME280;15330;51.234;6.754;2022-09-17T07:07:25;100999.69;;;16.04;67.11
28004;BME280;15330;51.234;6.754;2022-09-17T07:09:50;100997.84;;;15.84;65.36
28004;BME280;15330;51.234;6.754;2022-09-17T07:12:18;101001.06;;;15.07;68.06
28004;BME280;15330;51.234;6.754;2022-09-17T07:14:43;101002.69;;;14.87;66.98
28004;BME280;15330;51.234;6.754;2022-09-17T07:17:08;101001.84;;;14.42;69.51
28004;BME280;15330;51.234;6.754;2022-09-17T07:19:34;101004.31;;;13.83;70.70
28004;BME280;15330;51.234;6.754;2022-09-17T07:21:59;100991.69;;;15.54;67.22
28004;BME280;15330;51.234;6.754;2022-09-17T07:24:25;100991.09;;;16.71;62.57
28004;BME280;15330;51.234;6.754;2022-09-17T07:26:50;100997.56;;;16.83;60.96
28004;BME280;15330;51.234;6.754;2022-09-17T07:29:15;100987.13;;;17.69;58.43
28004;BME280;15330;51.234;6.754;2022-09-17T07:31:42;100988.22;;;18.14;57.95
28004;BME280;15330;51.234;6.754;2022-09-17T07:34:09;100985.91;;;17.91;58.29
28004;BME280;15330;51.234;6.754;2022-09-17T07:36:34;100996.50;;;17.86;57.79
28004;BME280;15330;51.234;6.754;2022-09-17T07:39:00;100986.00;;;19.47;54.63
28004;BME280;15330;51.234;6.754;2022-09-17T07:41:25;100982.13;;;18.78;53.17
28004;BME280;15330;51.234;6.754;2022-09-17T07:43:52;100979.63;;;19.72;50.35
28004;BME280;15330;51.234;6.754;2022-09-17T07:46:19;100984.97;;;20.10;51.01
28004;BME280;15330;51.234;6.754;2022-09-17T07:48:46;100982.84;;;19.88;49.87
28004;BME280;15330;51.234;6.754;2022-09-17T07:51:19;100989.19;;;21.11;49.52
28004;BME280;15330;51.234;6.754;2022-09-17T07:53:46;100987.47;;;18.91;50.98
28004;BME280;15330;51.234;6.754;2022-09-17T07:56:14;100985.34;;;20.39;48.47
28004;BME280;15330;51.234;6.754;2022-09-17T07:58:40;100989.13;;;20.38;47.04
28004;BME280;15330;51.234;6.754;2022-09-17T08:01:08;100990.81;;;21.78;46.46
28004;BME280;15330;51.234;6.754;2022-09-17T08:03:35;100986.09;;;21.26;45.58
28004;BME280;15330;51.234;6.754;2022-09-17T08:06:07;100989.44;;;19.98;48.78
28004;BME280;15330;51.234;6.754;2022-09-17T08:08:34;100997.75;;;17.90;52.79
28004;BME280;15330;51.234;6.754;2022-09-17T08:11:05;100985.84;;;19.35;49.88
28004;BME280;15330;51.234;6.754;2022-09-17T08:13:32;100995.16;;;19.01;50.33
28004;BME280;15330;51.234;6.754;2022-09-17T08:16:03;100989.59;;;18.83;50.21
28004;BME280;15330;51.234;6.754;2022-09-17T08:18:28;100993.28;;;19.53;49.10
28004;BME280;15330;51.234;6.754;2022-09-17T08:20:57;100989.13;;;19.50;49.29
28004;BME280;15330;51.234;6.754;2022-09-17T08:23:25;100995.06;;;19.27;49.44
28004;BME280;15330;51.234;6.754;2022-09-17T08:25:51;100992.34;;;18.56;49.33
28004;BME280;15330;51.234;6.754;2022-09-17T08:28:17;100992.66;;;19.06;47.25
28004;BME280;15330;51.234;6.754;2022-09-17T08:30:42;100987.34;;;20.50;45.04
28004;BME280;15330;51.234;6.754;2022-09-17T08:33:08;100988.59;;;20.72;43.71
28004;BME280;15330;51.234;6.754;2022-09-17T08:35:33;100994.41;;;19.76;45.71
28004;BME280;15330;51.234;6.754;2022-09-17T08:37:58;100995.28;;;22.14;42.73
28004;BME280;15330;51.234;6.754;2022-09-17T08:40:24;100992.06;;;23.51;40.31
28004;BME280;15330;51.234;6.754;2022-09-17T08:42:55;100996.59;;;22.00;42.58
28004;BME280;15330;51.234;6.754;2022-09-17T08:45:25;101001.84;;;20.44;44.58
28004;BME280;15330;51.234;6.754;2022-09-17T08:47:53;101002.88;;;21.82;42.27
28004;BME280;15330;51.234;6.754;2022-09-17T08:50:28;100991.91;;;23.57;39.11
28004;BME280;15330;51.234;6.754;2022-09-17T09:00:24;100985.72;;;22.58;37.08
28004;BME280;15330;51.234;6.754;2022-09-17T09:03:18;100986.19;;;25.09;32.54
28004;BME280;15330;51.234;6.754;2022-09-17T09:05:47;100993.66;;;22.60;37.31
28004;BME280;15330;51.234;6.754;2022-09-17T09:10:51;100997.16;;;24.93;34.14
28004;BME280;15330;51.234;6.754;2022-09-17T09:13:20;100988.00;;;23.82;36.70
28004;BME280;15330;51.234;6.754;2022-09-17T09:16:12;100992.78;;;18.66;46.13
28004;BME280;15330;51.234;6.754;2022-09-17T09:18:40;100995.00;;;24.23;34.07
28004;BME280;15330;51.234;6.754;2022-09-17T09:26:19;100998.19;;;24.20;34.68
28004;BME280;15330;51.234;6.754;2022-09-17T09:35:01;101002.66;;;19.88;43.42
28004;BME280;15330;51.234;6.754;2022-09-17T09:37:29;100989.91;;;21.96;37.45
28004;BME280;15330;51.234;6.754;2022-09-17T09:40:18;100989.94;;;19.57;43.08
28004;BME280;15330;51.234;6.754;2022-09-17T09:42:47;101002.78;;;18.33;45.15
28004;BME280;15330;51.234;6.754;2022-09-17T09:45:15;100993.94;;;17.58;47.22
28004;BME280;15330;51.234;6.754;2022-09-17T09:48:13;100996.34;;;16.86;48.68
28004;BME280;15330;51.234;6.754;2022-09-17T09:53:51;101001.88;;;15.94;51.77
28004;BME280;15330;51.234;6.754;2022-09-17T09:58:53;100985.22;;;22.85;37.03
28004;BME280;15330;51.234;6.754;2022-09-17T10:01:18;100987.28;;;21.11;39.83
28004;BME280;15330;51.234;6.754;2022-09-17T10:03:49;100989.63;;;18.50;42.95
28004;BME280;15330;51.234;6.754;2022-09-17T10:06:17;100992.06;;;16.64;48.63
28004;BME280;15330;51.234;6.754;2022-09-17T10:11:24;100982.44;;;20.59;41.07
28004;BME280;15330;51.234;6.754;2022-09-17T10:13:49;100992.75;;;19.31;42.73
28004;BME280;15330;51.234;6.754;2022-09-17T10:16:23;100980.13;;;23.28;35.29
28004;BME280;15330;51.234;6.754;2022-09-17T10:19:17;100978.75;;;20.71;39.04
28004;BME280;15330;51.234;6.754;2022-09-17T10:21:44;100966.31;;;20.64;37.94
28004;BME280;15330;51.234;6.754;2022-09-17T10:24:25;100966.50;;;26.62;28.43
28004;BME280;15330;51.234;6.754;2022-09-17T10:26:59;100968.81;;;19.15;40.70
28004;BME280;15330;51.234;6.754;2022-09-17T10:29:25;100986.09;;;18.10;44.75
28004;BME280;15330;51.234;6.754;2022-09-17T10:31:52;100990.91;;;15.96;52.72
28004;BME280;15330;51.234;6.754;2022-09-17T10:34:22;100983.63;;;15.96;55.88
28004;BME280;15330;51.234;6.754;2022-09-17T10:36:49;100984.78;;;16.08;57.48
28004;BME280;15330;51.234;6.754;2022-09-17T10:39:36;100969.38;;;20.24;45.76
28004;BME280;15330;51.234;6.754;2022-09-17T10:42:15;100960.38;;;26.45;32.48
28004;BME280;15330;51.234;6.754;2022-09-17T10:44:50;100950.50;;;28.34;29.79
28004;BME280;15330;51.234;6.754;2022-09-17T10:47:23;100946.84;;;26.75;32.22
28004;BME280;15330;51.234;6.754;2022-09-17T10:49:52;100951.41;;;25.10;33.30
28004;BME280;15330;51.234;6.754;2022-09-17T10:52:29;100943.50;;;25.13;32.82
28004;BME280;15330;51.234;6.754;2022-09-17T11:00:21;100953.22;;;21.99;37.26
28004;BME280;15330;51.234;6.754;2022-09-17T11:05:49;100938.31;;;22.13;35.96
28004;BME280;15330;51.234;6.754;2022-09-17T11:08:38;100947.25;;;18.82;42.51
28004;BME280;15330;51.234;6.754;2022-09-17T11:11:33;100948.00;;;17.91;45.43
28004;BME280;15330;51.234;6.754;2022-09-17T11:17:07;100951.88;;;16.88;47.50
28004;BME280;15330;51.234;6.754;2022-09-17T11:20:00;100950.28;;;17.07;47.70
28004;BME280;15330;51.234;6.754;2022-09-17T11:28:00;100970.22;;;15.24;53.41
28004;BME280;15330;51.234;6.754;2022-09-17T11:30:33;100967.94;;;14.92;55.29
28004;BME280;15330;51.234;6.754;2022-09-17T11:35:45;100983.41;;;14.31;58.96
28004;BME280;15330;51.234;6.754;2022-09-17T11:38:33;100988.09;;;13.77;60.14
28004;BME280;15330;51.234;6.754;2022-09-17T11:41:08;100975.91;;;15.15;56.27
28004;BME280;15330;51.234;6.754;2022-09-17T11:43:43;100970.16;;;16.24;53.08
28004;BME280;15330;51.234;6.754;2022-09-17T11:46:21;100971.09;;;16.66;51.42
28004;BME280;15330;51.234;6.754;2022-09-17T11:49:02;100973.69;;;16.80;51.15
28004;BME280;15330;51.234;6.754;2022-09-17T11:57:20;100963.19;;;18.19;48.38
28004;BME280;15330;51.234;6.754;2022-09-17T12:00:02;100961.94;;;18.21;47.66
28004;BME280;15330;51.234;6.754;2022-09-17T12:02:59;100965.56;;;18.99;45.78
28004;BME280;15330;51.234;6.754;2022-09-17T12:05:33;100968.41;;;18.47;47.31
28004;BME280;15330;51.234;6.754;2022-09-17T12:08:02;100965.84;;;17.59;48.85
28004;BME280;15330;51.234;6.754;2022-09-17T12:10:47;100972.16;;;17.80;48.80
28004;BME280;15330;51.234;6.754;2022-09-17T12:16:07;100965.28;;;18.23;48.36
28004;BME280;15330;51.234;6.754;2022-09-17T12:21:28;100944.69;;;17.96;46.74
28004;BME280;15330;51.234;6.754;2022-09-17T12:24:02;100953.75;;;17.55;47.17
28004;BME280;15330;51.234;6.754;2022-09-17T12:29:29;101012.81;;;16.07;52.60
28004;BME280;15330;51.234;6.754;2022-09-17T12:37:26;101047.41;;;13.05;74.33
28004;BME280;15330;51.234;6.754;2022-09-17T12:45:52;100996.81;;;12.78;73.94
28004;BME280;15330;51.234;6.754;2022-09-17T12:51:48;100988.47;;;15.43;71.06
28004;BME280;15330;51.234;6.754;2022-09-17T12:59:39;100973.56;;;15.84;68.67
28004;BME280;15330;51.234;6.754;2022-09-17T13:02:17;100968.97;;;14.76;70.21
28004;BME280;15330;51.234;6.754;2022-09-17T13:21:12;100944.25;;;17.05;66.08
28004;BME280;15330;51.234;6.754;2022-09-17T13:23:47;100929.06;;;16.98;64.71
28004;BME280;15330;51.234;6.754;2022-09-17T13:26:16;100931.41;;;16.66;63.82
28004;BME280;15330;51.234;6.754;2022-09-17T13:28:48;100923.38;;;17.47;63.35
28004;BME280;15330;51.234;6.754;2022-09-17T13:36:59;100922.38;;;17.68;60.54
28004;BME280;15330;51.234;6.754;2022-09-17T13:39:40;100920.22;;;17.37;61.43
28004;BME280;15330;51.234;6.754;2022-09-17T13:42:28;100916.25;;;17.19;62.15
28004;BME280;15330;51.234;6.754;2022-09-17T13:45:13;100917.19;;;17.92;62.56
28004;BME280;15330;51.234;6.754;2022-09-17T13:48:01;100912.16;;;17.56;59.39
28004;BME280;15330;51.234;6.754;2022-09-17T13:50:36;100906.78;;;17.89;58.84
28004;BME280;15330;51.234;6.754;2022-09-17T13:58:27;100919.47;;;16.88;60.00
28004;BME280;15330;51.234;6.754;2022-09-17T14:08:46;100985.47;;;14.44;65.22
28004;BME280;15330;51.234;6.754;2022-09-17T14:13:53;100969.59;;;13.96;66.20
28004;BME280;15330;51.234;6.754;2022-09-17T14:19:00;100956.22;;;14.99;63.23
28004;BME280;15330;51.234;6.754;2022-09-17T14:21:29;100946.88;;;14.66;63.32
28004;BME280;15330;51.234;6.754;2022-09-17T14:23:58;100964.78;;;14.88;63.32
28004;BME280;15330;51.234;6.754;2022-09-17T14:26:34;100976.63;;;15.23;63.53
28004;BME280;15330;51.234;6.754;2022-09-17T14:31:47;100973.03;;;14.87;64.68
28004;BME280;15330;51.234;6.754;2022-09-17T14:34:23;100964.31;;;14.99;65.27
28004;BME280;15330;51.234;6.754;2022-09-17T14:36:51;100969.25;;;14.66;67.32
28004;BME280;15330;51.234;6.754;2022-09-17T14:39:23;100966.75;;;14.13;69.63
28004;BME280;15330;51.234;6.754;2022-09-17T14:41:50;100969.34;;;14.44;67.98
28004;BME280;15330;51.234;6.754;2022-09-17T14:44:24;100958.13;;;14.84;65.37
28004;BME280;15330;51.234;6.754;2022-09-17T14:47:02;100958.78;;;15.22;64.08
28004;BME280;15330;51.234;6.754;2022-09-17T14:49:34;100944.19;;;14.66;62.33
28004;BME280;15330;51.234;6.754;2022-09-17T14:52:00;100953.63;;;15.42;62.89
28004;BME280;15330;51.234;6.754;2022-09-17T14:54:28;100951.56;;;15.44;61.16
28004;BME280;15330;51.234;6.754;2022-09-17T14:57:01;100949.19;;;15.34;60.68
28004;BME280;15330;51.234;6.754;2022-09-17T15:04:50;100947.84;;;15.09;59.90
28004;BME280;15330;51.234;6.754;2022-09-17T15:07:16;100948.91;;;15.29;59.46
28004;BME280;15330;51.234;6.754;2022-09-17T15:09:44;100952.78;;;15.41;58.98
28004;BME280;15330;51.234;6.754;2022-09-17T15:12:14;100950.47;;;14.88;57.99
28004;BME280;15330;51.234;6.754;2022-09-17T15:14:42;100945.03;;;15.17;58.40
28004;BME280;15330;51.234;6.754;2022-09-17T15:17:17;100951.41;;;14.95;58.96
28004;BME280;15330;51.234;6.754;2022-09-17T15:19:49;100946.66;;;14.97;59.32
28004;BME280;15330;51.234;6.754;2022-09-17T15:22:22;100935.56;;;15.06;59.57
28004;BME280;15330;51.234;6.754;2022-09-17T15:25:51;100955.88;;;14.88;60.36
28004;BME280;15330;51.234;6.754;2022-09-17T15:27:44;100948.00;;;14.72;59.79
28004;BME280;15330;51.234;6.754;2022-09-17T15:30:15;100951.72;;;14.71;60.38
28004;BME280;15330;51.234;6.754;2022-09-17T15:40:36;100941.91;;;14.99;57.18
28004;BME280;15330;51.234;6.754;2022-09-17T15:43:28;100952.63;;;14.78;57.13
28004;BME280;15330;51.234;6.754;2022-09-17T15:45:55;100946.13;;;14.87;57.04
28004;BME280;15330;51.234;6.754;2022-09-17T15:50:59;100955.06;;;14.73;55.74
28004;BME280;15330;51.234;6.754;2022-09-17T15:53:30;100950.59;;;14.65;55.91
28004;BME280;15330;51.234;6.754;2022-09-17T16:08:52;100961.56;;;14.63;58.90
28004;BME280;15330;51.234;6.754;2022-09-17T16:11:37;100967.50;;;14.59;58.69
28004;BME280;15330;51.234;6.754;2022-09-17T16:14:04;100968.34;;;14.59;58.35
28004;BME280;15330;51.234;6.754;2022-09-17T16:16:35;100972.53;;;14.62;57.97
28004;BME280;15330;51.234;6.754;2022-09-17T16:19:01;100979.22;;;14.28;57.35
28004;BME280;15330;51.234;6.754;2022-09-17T16:21:26;100977.03;;;14.32;57.12